sensor_id;sensor_type;location;lat;lon;timestamp;P1;durP1;ratioP1;P2;durP2;ratioP2
3847;SDS011;1939;48.720;9.166;2023-04-12T00:01:32;3.40;;;2.10;;
3847;SDS011;1939;48.720;9.166;2023-04-12T00:03:58;4.73;;;1.83;;
3847;SDS011;1939;48.720;9.166;2023-04-12T00:06:23;4.00;;;2.47;;
3847;SDS011;1939;48.720;9.166;2023-04-12T00:08:51;12.10;;;2.40;;
3847;SDS011;1939;48.720;9.166;2023-04-12T00:11:16;3.63;;;2.40;;
3847;SDS011;1939;48.720;9.166;2023-04-12T00:13:42;5.30;;;2.83;;
3847;SDS011;1939;48.720;9.166;2023-04-12T00:16:07;10.47;;;2.60;;
3847;SDS011;1939;48.720;9.166;2023-04-12T00:18:33;7.20;;;2.60;;
3847;SDS011;1939;48.720;9.166;2023-04-12T00:20:58;5.80;;;2.20;;
3847;SDS011;1939;48.720;9.166;2023-04-12T00:23:23;5.93;;;2.17;;
3847;SDS011;1939;48.720;9.166;2023-04-12T00:25:48;9.80;;;2.90;;
3847;SDS011;1939;48.720;9.166;2023-04-12T00:28:14;8.53;;;2.60;;
3847;SDS011;1939;48.720;9.166;2023-04-12T00:30:40;13.33;;;3.17;;
3847;SDS011;1939;48.720;9.166;2023-04-12T00:33:05;6.80;;;2.20;;
3847;SDS011;1939;48.720;9.166;2023-04-12T00:35:31;5.03;;;2.60;;
3847;SDS011;1939;48.720;9.166;2023-04-12T00:37:56;5.40;;;2.47;;
3847;SDS011;1939;48.720;9.166;2023-04-12T00:40:21;7.67;;;3.23;;
3847;SDS011;1939;48.720;9.166;2023-04-12T00:42:47;5.50;;;3.00;;
3847;SDS011;1939;48.720;9.166;2023-04-12T00:45:12;9.27;;;2.87;;
3847;SDS011;1939;48.720;9.166;2023-04-12T00:47:38;4.23;;;2.53;;
3847;SDS011;1939;48.720;9.166;2023-04-12T00:50:04;3.53;;;3.00;;
3847;SDS011;1939;48.720;9.166;2023-04-12T00:52:33;8.47;;;2.40;;
3847;SDS011;1939;48.720;9.166;2023-04-12T00:55:00;7.27;;;2.20;;
3847;SDS011;1939;48.720;9.166;2023-04-12T00:57:25;4.43;;;2.30;;
3847;SDS011;1939;48.720;9.166;2023-04-12T00:59:50;4.70;;;2.57;;
3847;SDS011;1939;48.720;9.166;2023-04-12T01:02:15;5.20;;;2.67;;
3847;SDS011;1939;48.720;9.166;2023-04-12T01:04:41;6.83;;;2.43;;
3847;SDS011;1939;48.720;9.166;2023-04-12T01:07:18;7.40;;;2.77;;
3847;SDS011;1939;48.720;9.166;2023-04-12T01:15:07;5.50;;;2.40;;
3847;SDS011;1939;48.720;9.166;2023-04-12T01:17:45;4.97;;;2.80;;
3847;SDS011;1939;48.720;9.166;2023-04-12T01:20:16;9.13;;;2.13;;
3847;SDS011;1939;48.720;9.166;2023-04-12T01:28:03;5.07;;;2.80;;
3847;SDS011;1939;48.720;9.166;2023-04-12T01:30:29;7.07;;;2.80;;
3847;SDS011;1939;48.720;9.166;2023-04-12T01:32:55;7.70;;;3.10;;
3847;SDS011;1939;48.720;9.166;2023-04-12T01:35:30;8.40;;;2.90;;
3847;SDS011;1939;48.720;9.166;2023-04-12T01:37:58;7.70;;;3.00;;
3847;SDS011;1939;48.720;9.166;2023-04-12T01:40:28;10.13;;;3.03;;
3847;SDS011;1939;48.720;9.166;2023-04-12T01:43:04;7.33;;;3.20;;
3847;SDS011;1939;48.720;9.166;2023-04-12T01:45:30;11.23;;;3.10;;
3847;SDS011;1939;48.720;9.166;2023-04-12T01:47:55;5.20;;;2.80;;
3847;SDS011;1939;48.720;9.166;2023-04-12T01:50:21;8.37;;;2.43;;
3847;SDS011;1939;48.720;9.166;2023-04-12T01:53:10;6.80;;;2.73;;
3847;SDS011;1939;48.720;9.166;2023-04-12T01:55:33;7.47;;;3.07;;
3847;SDS011;1939;48.720;9.166;2023-04-12T01:58:01;3.93;;;2.70;;
3847;SDS011;1939;48.720;9.166;2023-04-12T02:00:26;5.93;;;2.63;;
3847;SDS011;1939;48.720;9.166;2023-04-12T02:02:52;5.07;;;2.90;;
3847;SDS011;1939;48.720;9.166;2023-04-12T02:05:17;13.70;;;3.90;;
3847;SDS011;1939;48.720;9.166;2023-04-12T02:07:43;6.00;;;3.13;;
3847;SDS011;1939;48.720;9.166;2023-04-12T02:10:12;8.33;;;3.57;;
3847;SDS011;1939;48.720;9.166;2023-04-12T02:12:38;8.20;;;2.90;;
3847;SDS011;1939;48.720;9.166;2023-04-12T02:15:03;9.60;;;3.30;;
3847;SDS011;1939;48.720;9.166;2023-04-12T02:17:32;4.87;;;3.27;;
3847;SDS011;1939;48.720;9.166;2023-04-12T02:19:57;8.40;;;4.13;;
3847;SDS011;1939;48.720;9.166;2023-04-12T02:22:22;6.17;;;2.73;;
3847;SDS011;1939;48.720;9.166;2023-04-12T02:24:47;5.10;;;3.40;;
3847;SDS011;1939;48.720;9.166;2023-04-12T02:27:13;8.97;;;3.20;;
3847;SDS011;1939;48.720;9.166;2023-04-12T02:29:38;7.30;;;3.17;;
3847;SDS011;1939;48.720;9.166;2023-04-12T02:32:03;6.70;;;2.73;;
3847;SDS011;1939;48.720;9.166;2023-04-12T02:34:28;7.57;;;3.63;;
3847;SDS011;1939;48.720;9.166;2023-04-12T02:36:58;8.90;;;3.90;;
3847;SDS011;1939;48.720;9.166;2023-04-12T02:39:23;21.30;;;3.97;;
3847;SDS011;1939;48.720;9.166;2023-04-12T02:41:48;8.20;;;4.10;;
3847;SDS011;1939;48.720;9.166;2023-04-12T02:44:14;10.77;;;4.17;;
3847;SDS011;1939;48.720;9.166;2023-04-12T02:46:39;9.97;;;3.90;;
3847;SDS011;1939;48.720;9.166;2023-04-12T02:49:04;9.30;;;4.47;;
3847;SDS011;1939;48.720;9.166;2023-04-12T02:51:30;10.60;;;4.17;;
3847;SDS011;1939;48.720;9.166;2023-04-12T02:53:55;11.03;;;4.00;;
3847;SDS011;1939;48.720;9.166;2023-04-12T02:56:20;7.70;;;3.93;;
3847;SDS011;1939;48.720;9.166;2023-04-12T02:58:46;18.10;;;3.83;;
3847;SDS011;1939;48.720;9.166;2023-04-12T03:01:11;8.30;;;4.40;;
3847;SDS011;1939;48.720;9.166;2023-04-12T03:03:37;11.77;;;4.30;;
3847;SDS011;1939;48.720;9.166;2023-04-12T03:06:03;12.40;;;4.40;;
3847;SDS011;1939;48.720;9.166;2023-04-12T03:08:28;7.23;;;3.90;;
3847;SDS011;1939;48.720;9.166;2023-04-12T03:10:53;8.77;;;4.00;;
3847;SDS011;1939;48.720;9.166;2023-04-12T03:13:19;7.33;;;4.47;;
3847;SDS011;1939;48.720;9.166;2023-04-12T03:15:45;9.33;;;4.30;;
3847;SDS011;1939;48.720;9.166;2023-04-12T03:18:10;16.20;;;4.83;;
3847;SDS011;1939;48.720;9.166;2023-04-12T03:20:36;11.37;;;4.40;;
3847;SDS011;1939;48.720;9.166;2023-04-12T03:23:03;15.37;;;4.40;;
3847;SDS011;1939;48.720;9.166;2023-04-12T03:25:28;9.10;;;6.13;;
3847;SDS011;1939;48.720;9.166;2023-04-12T03:27:53;9.67;;;5.13;;
3847;SDS011;1939;48.720;9.166;2023-04-12T03:30:18;8.40;;;4.83;;
3847;SDS011;1939;48.720;9.166;2023-04-12T03:32:44;7.53;;;4.47;;
3847;SDS011;1939;48.720;9.166;2023-04-12T03:35:09;8.23;;;4.77;;
3847;SDS011;1939;48.720;9.166;2023-04-12T03:37:34;14.97;;;5.80;;
3847;SDS011;1939;48.720;9.166;2023-04-12T03:40:00;20.47;;;5.80;;
3847;SDS011;1939;48.720;9.166;2023-04-12T03:42:26;15.67;;;6.03;;
3847;SDS011;1939;48.720;9.166;2023-04-12T03:44:51;19.43;;;6.27;;
3847;SDS011;1939;48.720;9.166;2023-04-12T03:47:17;18.93;;;5.90;;
3847;SDS011;1939;48.720;9.166;2023-04-12T03:49:43;13.97;;;5.53;;
3847;SDS011;1939;48.720;9.166;2023-04-12T03:52:08;19.50;;;7.00;;
3847;SDS011;1939;48.720;9.166;2023-04-12T03:54:34;9.63;;;6.13;;
3847;SDS011;1939;48.720;9.166;2023-04-12T03:56:59;10.03;;;5.67;;
3847;SDS011;1939;48.720;9.166;2023-04-12T03:59:26;8.77;;;5.53;;
3847;SDS011;1939;48.720;9.166;2023-04-12T04:01:51;13.77;;;6.90;;
3847;SDS011;1939;48.720;9.166;2023-04-12T04:04:17;12.47;;;6.00;;
3847;SDS011;1939;48.720;9.166;2023-04-12T04:06:42;9.40;;;5.90;;
3847;SDS011;1939;48.720;9.166;2023-04-12T04:09:07;11.37;;;6.27;;
3847;SDS011;1939;48.720;9.166;2023-04-12T04:11:32;20.63;;;6.67;;
3847;SDS011;1939;48.720;9.166;2023-04-12T04:13:57;18.57;;;7.90;;
3847;SDS011;1939;48.720;9.166;2023-04-12T04:16:23;10.17;;;6.43;;
3847;SDS011;1939;48.720;9.166;2023-04-12T04:18:48;10.97;;;6.30;;
3847;SDS011;1939;48.720;9.166;2023-04-12T04:21:13;10.40;;;6.47;;
3847;SDS011;1939;48.720;9.166;2023-04-12T04:23:38;17.10;;;7.63;;
3847;SDS011;1939;48.720;9.166;2023-04-12T04:26:07;14.03;;;7.07;;
3847;SDS011;1939;48.720;9.166;2023-04-12T04:28:36;16.83;;;6.97;;
3847;SDS011;1939;48.720;9.166;2023-04-12T04:31:04;15.30;;;7.23;;
3847;SDS011;1939;48.720;9.166;2023-04-12T04:33:33;16.60;;;7.20;;
3847;SDS011;1939;48.720;9.166;2023-04-12T04:35:58;14.40;;;7.00;;
3847;SDS011;1939;48.720;9.166;2023-04-12T04:38:23;16.73;;;8.03;;
3847;SDS011;1939;48.720;9.166;2023-04-12T04:40:52;17.13;;;7.13;;
3847;SDS011;1939;48.720;9.166;2023-04-12T04:43:17;11.83;;;6.00;;
3847;SDS011;1939;48.720;9.166;2023-04-12T04:45:45;10.93;;;6.80;;
3847;SDS011;1939;48.720;9.166;2023-04-12T04:48:12;12.57;;;7.80;;
3847;SDS011;1939;48.720;9.166;2023-04-12T04:50:37;13.30;;;6.43;;
3847;SDS011;1939;48.720;9.166;2023-04-12T04:53:03;15.03;;;7.53;;
3847;SDS011;1939;48.720;9.166;2023-04-12T04:55:28;10.47;;;6.97;;
3847;SDS011;1939;48.720;9.166;2023-04-12T04:57:54;16.23;;;6.90;;
3847;SDS011;1939;48.720;9.166;2023-04-12T05:00:21;19.53;;;9.50;;
3847;SDS011;1939;48.720;9.166;2023-04-12T05:02:49;12.57;;;6.37;;
3847;SDS011;1939;48.720;9.166;2023-04-12T05:05:15;9.90;;;6.30;;
3847;SDS011;1939;48.720;9.166;2023-04-12T05:07:41;10.40;;;6.60;;
3847;SDS011;1939;48.720;9.166;2023-04-12T05:10:07;12.07;;;6.97;;
3847;SDS011;1939;48.720;9.166;2023-04-12T05:12:33;13.20;;;7.00;;
3847;SDS011;1939;48.720;9.166;2023-04-12T05:14:58;13.73;;;6.97;;
3847;SDS011;1939;48.720;9.166;2023-04-12T05:17:23;11.53;;;7.43;;
3847;SDS011;1939;48.720;9.166;2023-04-12T05:19:49;13.83;;;7.80;;
3847;SDS011;1939;48.720;9.166;2023-04-12T05:22:14;14.90;;;7.67;;
3847;SDS011;1939;48.720;9.166;2023-04-12T05:24:44;13.10;;;7.40;;
3847;SDS011;1939;48.720;9.166;2023-04-12T05:27:09;15.03;;;7.93;;
3847;SDS011;1939;48.720;9.166;2023-04-12T05:29:34;16.63;;;8.10;;
3847;SDS011;1939;48.720;9.166;2023-04-12T05:32:00;19.87;;;8.30;;
3847;SDS011;1939;48.720;9.166;2023-04-12T05:34:25;18.50;;;8.97;;
3847;SDS011;1939;48.720;9.166;2023-04-12T05:36:50;20.07;;;8.80;;
3847;SDS011;1939;48.720;9.166;2023-04-12T05:39:15;15.67;;;8.33;;
3847;SDS011;1939;48.720;9.166;2023-04-12T05:41:40;17.60;;;8.17;;
3847;SDS011;1939;48.720;9.166;2023-04-12T05:44:06;13.27;;;8.03;;
3847;SDS011;1939;48.720;9.166;2023-04-12T05:46:31;22.43;;;8.67;;
3847;SDS011;1939;48.720;9.166;2023-04-12T05:48:56;26.77;;;8.30;;
3847;SDS011;1939;48.720;9.166;2023-04-12T05:51:21;17.43;;;7.80;;
3847;SDS011;1939;48.720;9.166;2023-04-12T05:53:47;15.70;;;8.77;;
3847;SDS011;1939;48.720;9.166;2023-04-12T05:56:12;13.03;;;8.23;;
3847;SDS011;1939;48.720;9.166;2023-04-12T05:58:37;12.03;;;6.73;;
3847;SDS011;1939;48.720;9.166;2023-04-12T06:01:03;19.60;;;8.30;;
3847;SDS011;1939;48.720;9.166;2023-04-12T06:03:28;16.37;;;9.60;;
3847;SDS011;1939;48.720;9.166;2023-04-12T06:05:54;13.70;;;7.30;;
3847;SDS011;1939;48.720;9.166;2023-04-12T06:08:20;14.93;;;6.03;;
3847;SDS011;1939;48.720;9.166;2023-04-12T06:10:45;8.63;;;5.37;;
3847;SDS011;1939;48.720;9.166;2023-04-12T06:13:10;12.70;;;6.60;;
3847;SDS011;1939;48.720;9.166;2023-04-12T06:15:36;14.90;;;6.13;;
3847;SDS011;1939;48.720;9.166;2023-04-12T06:18:01;10.57;;;5.53;;
3847;SDS011;1939;48.720;9.166;2023-04-12T06:20:26;8.23;;;4.97;;
3847;SDS011;1939;48.720;9.166;2023-04-12T06:22:51;7.60;;;5.57;;
3847;SDS011;1939;48.720;9.166;2023-04-12T06:25:17;13.33;;;4.63;;
3847;SDS011;1939;48.720;9.166;2023-04-12T06:27:42;8.70;;;5.83;;
3847;SDS011;1939;48.720;9.166;2023-04-12T06:30:07;16.40;;;5.23;;
3847;SDS011;1939;48.720;9.166;2023-04-12T06:32:33;8.40;;;4.90;;
3847;SDS011;1939;48.720;9.166;2023-04-12T06:34:58;5.67;;;4.13;;
3847;SDS011;1939;48.720;9.166;2023-04-12T06:37:23;8.10;;;5.27;;
3847;SDS011;1939;48.720;9.166;2023-04-12T06:39:49;9.20;;;5.17;;
3847;SDS011;1939;48.720;9.166;2023-04-12T06:42:14;9.93;;;4.90;;
3847;SDS011;1939;48.720;9.166;2023-04-12T06:44:39;9.67;;;4.50;;
3847;SDS011;1939;48.720;9.166;2023-04-12T06:47:05;10.00;;;4.83;;
3847;SDS011;1939;48.720;9.166;2023-04-12T06:49:30;6.47;;;3.80;;
3847;SDS011;1939;48.720;9.166;2023-04-12T06:51:55;10.43;;;4.50;;
3847;SDS011;1939;48.720;9.166;2023-04-12T06:54:20;7.00;;;4.10;;
3847;SDS011;1939;48.720;9.166;2023-04-12T06:56:46;15.20;;;5.17;;
3847;SDS011;1939;48.720;9.166;2023-04-12T06:59:11;5.70;;;3.87;;
3847;SDS011;1939;48.720;9.166;2023-04-12T07:01:37;8.20;;;4.07;;
3847;SDS011;1939;48.720;9.166;2023-04-12T07:04:02;7.07;;;3.80;;
3847;SDS011;1939;48.720;9.166;2023-04-12T07:06:27;6.83;;;3.40;;
3847;SDS011;1939;48.720;9.166;2023-04-12T07:08:52;9.97;;;3.03;;
3847;SDS011;1939;48.720;9.166;2023-04-12T07:11:18;12.43;;;3.50;;
3847;SDS011;1939;48.720;9.166;2023-04-12T07:13:43;8.27;;;3.70;;
3847;SDS011;1939;48.720;9.166;2023-04-12T07:16:08;5.10;;;3.33;;
3847;SDS011;1939;48.720;9.166;2023-04-12T07:18:34;5.67;;;3.50;;
3847;SDS011;1939;48.720;9.166;2023-04-12T07:20:59;5.60;;;3.50;;
3847;SDS011;1939;48.720;9.166;2023-04-12T07:23:24;4.90;;;3.40;;
3847;SDS011;1939;48.720;9.166;2023-04-12T07:25:51;5.33;;;3.20;;
3847;SDS011;1939;48.720;9.166;2023-04-12T07:28:17;4.17;;;2.60;;
3847;SDS011;1939;48.720;9.166;2023-04-12T07:30:42;4.13;;;2.47;;
3847;SDS011;1939;48.720;9.166;2023-04-12T07:33:08;4.70;;;2.40;;
3847;SDS011;1939;48.720;9.166;2023-04-12T07:35:33;5.93;;;2.50;;
3847;SDS011;1939;48.720;9.166;2023-04-12T07:37:58;2.20;;;1.90;;
3847;SDS011;1939;48.720;9.166;2023-04-12T07:40:25;4.30;;;2.50;;
3847;SDS011;1939;48.720;9.166;2023-04-12T07:42:50;3.17;;;2.13;;
3847;SDS011;1939;48.720;9.166;2023-04-12T07:45:15;3.03;;;2.73;;
3847;SDS011;1939;48.720;9.166;2023-04-12T07:47:41;5.20;;;1.80;;
3847;SDS011;1939;48.720;9.166;2023-04-12T07:50:06;8.40;;;2.43;;
3847;SDS011;1939;48.720;9.166;2023-04-12T07:52:31;3.50;;;2.57;;
3847;SDS011;1939;48.720;9.166;2023-04-12T07:54:57;4.03;;;2.40;;
3847;SDS011;1939;48.720;9.166;2023-04-12T07:57:22;3.67;;;2.30;;
3847;SDS011;1939;48.720;9.166;2023-04-12T07:59:48;2.40;;;2.20;;
3847;SDS011;1939;48.720;9.166;2023-04-12T08:02:13;3.23;;;2.07;;
3847;SDS011;1939;48.720;9.166;2023-04-12T08:04:38;3.33;;;2.30;;
3847;SDS011;1939;48.720;9.166;2023-04-12T08:07:08;5.80;;;2.60;;
3847;SDS011;1939;48.720;9.166;2023-04-12T08:09:33;2.50;;;2.30;;
3847;SDS011;1939;48.720;9.166;2023-04-12T08:11:58;3.73;;;2.33;;
3847;SDS011;1939;48.720;9.166;2023-04-12T08:14:23;5.37;;;2.33;;
3847;SDS011;1939;48.720;9.166;2023-04-12T08:16:49;3.13;;;2.50;;
3847;SDS011;1939;48.720;9.166;2023-04-12T08:19:14;3.60;;;2.03;;
3847;SDS011;1939;48.720;9.166;2023-04-12T08:21:39;4.53;;;2.80;;
3847;SDS011;1939;48.720;9.166;2023-04-12T08:24:04;4.03;;;2.30;;
3847;SDS011;1939;48.720;9.166;2023-04-12T08:26:30;4.30;;;2.27;;
3847;SDS011;1939;48.720;9.166;2023-04-12T08:28:55;3.40;;;2.43;;
3847;SDS011;1939;48.720;9.166;2023-04-12T08:31:22;3.00;;;2.07;;
3847;SDS011;1939;48.720;9.166;2023-04-12T08:33:47;2.20;;;1.87;;
3847;SDS011;1939;48.720;9.166;2023-04-12T08:36:12;4.13;;;2.03;;
3847;SDS011;1939;48.720;9.166;2023-04-12T08:38:38;2.10;;;1.90;;
3847;SDS011;1939;48.720;9.166;2023-04-12T08:41:03;4.30;;;2.23;;
3847;SDS011;1939;48.720;9.166;2023-04-12T08:43:29;2.00;;;1.60;;
3847;SDS011;1939;48.720;9.166;2023-04-12T08:45:56;2.13;;;1.93;;
3847;SDS011;1939;48.720;9.166;2023-04-12T08:48:22;3.43;;;2.07;;
3847;SDS011;1939;48.720;9.166;2023-04-12T08:50:49;5.10;;;2.33;;
3847;SDS011;1939;48.720;9.166;2023-04-12T08:53:15;2.93;;;2.00;;
3847;SDS011;1939;48.720;9.166;2023-04-12T08:55:42;8.70;;;2.57;;
3847;SDS011;1939;48.720;9.166;2023-04-12T08:58:08;7.53;;;2.30;;
3847;SDS011;1939;48.720;9.166;2023-04-12T09:00:33;4.23;;;2.70;;
3847;SDS011;1939;48.720;9.166;2023-04-12T09:03:00;1.97;;;1.50;;
3847;SDS011;1939;48.720;9.166;2023-04-12T09:05:29;4.63;;;2.20;;
3847;SDS011;1939;48.720;9.166;2023-04-12T09:07:54;6.13;;;1.80;;
3847;SDS011;1939;48.720;9.166;2023-04-12T09:13:14;6.07;;;2.57;;
3847;SDS011;1939;48.720;9.166;2023-04-12T09:15:48;6.83;;;2.67;;
3847;SDS011;1939;48.720;9.166;2023-04-12T09:18:14;4.70;;;2.13;;
3847;SDS011;1939;48.720;9.166;2023-04-12T09:20:39;2.87;;;2.10;;
3847;SDS011;1939;48.720;9.166;2023-04-12T09:23:20;4.90;;;1.90;;
3847;SDS011;1939;48.720;9.166;2023-04-12T09:25:46;3.77;;;1.80;;
3847;SDS011;1939;48.720;9.166;2023-04-12T09:28:21;5.73;;;3.23;;
3847;SDS011;1939;48.720;9.166;2023-04-12T09:30:46;2.13;;;1.90;;
3847;SDS011;1939;48.720;9.166;2023-04-12T09:33:18;7.17;;;2.43;;
3847;SDS011;1939;48.720;9.166;2023-04-12T09:35:43;3.10;;;1.73;;
3847;SDS011;1939;48.720;9.166;2023-04-12T09:38:09;6.40;;;2.17;;
3847;SDS011;1939;48.720;9.166;2023-04-12T09:40:35;9.10;;;3.23;;
3847;SDS011;1939;48.720;9.166;2023-04-12T09:43:00;3.37;;;2.20;;
3847;SDS011;1939;48.720;9.166;2023-04-12T09:45:26;2.43;;;2.07;;
3847;SDS011;1939;48.720;9.166;2023-04-12T09:47:52;5.17;;;2.83;;
3847;SDS011;1939;48.720;9.166;2023-04-12T09:50:18;3.47;;;2.60;;
3847;SDS011;1939;48.720;9.166;2023-04-12T09:52:43;4.10;;;2.03;;
3847;SDS011;1939;48.720;9.166;2023-04-12T09:55:09;2.67;;;2.23;;
3847;SDS011;1939;48.720;9.166;2023-04-12T09:57:41;4.23;;;2.37;;
3847;SDS011;1939;48.720;9.166;2023-04-12T10:00:08;4.40;;;2.57;;
3847;SDS011;1939;48.720;9.166;2023-04-12T10:02:39;4.83;;;2.03;;
3847;SDS011;1939;48.720;9.166;2023-04-12T10:05:05;5.10;;;2.23;;
3847;SDS011;1939;48.720;9.166;2023-04-12T10:07:30;3.40;;;1.73;;
3847;SDS011;1939;48.720;9.166;2023-04-12T10:09:57;3.00;;;2.07;;
3847;SDS011;1939;48.720;9.166;2023-04-12T10:12:23;4.17;;;2.30;;
3847;SDS011;1939;48.720;9.166;2023-04-12T10:14:49;3.10;;;2.17;;
3847;SDS011;1939;48.720;9.166;2023-04-12T10:17:15;3.30;;;2.00;;
3847;SDS011;1939;48.720;9.166;2023-04-12T10:19:43;8.67;;;2.33;;
3847;SDS011;1939;48.720;9.166;2023-04-12T10:22:08;5.27;;;2.07;;
3847;SDS011;1939;48.720;9.166;2023-04-12T10:24:34;3.40;;;2.27;;
3847;SDS011;1939;48.720;9.166;2023-04-12T10:26:59;5.00;;;2.40;;
3847;SDS011;1939;48.720;9.166;2023-04-12T10:29:27;4.70;;;2.60;;
3847;SDS011;1939;48.720;9.166;2023-04-12T10:31:54;7.43;;;3.80;;
3847;SDS011;1939;48.720;9.166;2023-04-12T10:34:38;9.70;;;4.67;;
3847;SDS011;1939;48.720;9.166;2023-04-12T10:37:06;4.60;;;2.17;;
3847;SDS011;1939;48.720;9.166;2023-04-12T10:39:41;2.03;;;1.80;;
3847;SDS011;1939;48.720;9.166;2023-04-12T10:42:14;4.93;;;2.07;;
3847;SDS011;1939;48.720;9.166;2023-04-12T10:44:39;3.90;;;2.20;;
3847;SDS011;1939;48.720;9.166;2023-04-12T10:47:04;2.50;;;1.53;;
3847;SDS011;1939;48.720;9.166;2023-04-12T10:49:30;4.80;;;1.90;;
3847;SDS011;1939;48.720;9.166;2023-04-12T10:56:50;6.83;;;2.23;;
3847;SDS011;1939;48.720;9.166;2023-04-12T10:59:16;3.00;;;1.83;;
3847;SDS011;1939;48.720;9.166;2023-04-12T11:01:41;5.17;;;1.67;;
3847;SDS011;1939;48.720;9.166;2023-04-12T11:04:26;2.73;;;1.47;;
3847;SDS011;1939;48.720;9.166;2023-04-12T11:11:42;3.50;;;1.70;;
3847;SDS011;1939;48.720;9.166;2023-04-12T11:14:11;1.57;;;1.13;;
3847;SDS011;1939;48.720;9.166;2023-04-12T11:19:21;1.50;;;1.23;;
3847;SDS011;1939;48.720;9.166;2023-04-12T11:21:46;2.60;;;1.20;;
3847;SDS011;1939;48.720;9.166;2023-04-12T11:24:12;3.80;;;1.50;;
3847;SDS011;1939;48.720;9.166;2023-04-12T11:26:38;1.90;;;1.30;;
3847;SDS011;1939;48.720;9.166;2023-04-12T11:29:06;1.30;;;1.10;;
3847;SDS011;1939;48.720;9.166;2023-04-12T11:31:32;22.40;;;1.67;;
3847;SDS011;1939;48.720;9.166;2023-04-12T11:33:58;2.30;;;1.30;;
3847;SDS011;1939;48.720;9.166;2023-04-12T11:36:23;2.00;;;1.13;;
3847;SDS011;1939;48.720;9.166;2023-04-12T11:38:50;1.50;;;0.87;;
3847;SDS011;1939;48.720;9.166;2023-04-12T11:41:15;1.47;;;1.10;;
3847;SDS011;1939;48.720;9.166;2023-04-12T11:43:42;2.43;;;1.07;;
3847;SDS011;1939;48.720;9.166;2023-04-12T11:46:08;7.40;;;1.63;;
3847;SDS011;1939;48.720;9.166;2023-04-12T11:48:34;3.73;;;1.87;;
3847;SDS011;1939;48.720;9.166;2023-04-12T11:51:17;1.20;;;1.10;;
3847;SDS011;1939;48.720;9.166;2023-04-12T11:53:43;1.47;;;1.07;;
3847;SDS011;1939;48.720;9.166;2023-04-12T11:56:09;1.63;;;1.10;;
3847;SDS011;1939;48.720;9.166;2023-04-12T11:58:34;2.33;;;1.07;;
3847;SDS011;1939;48.720;9.166;2023-04-12T12:00:59;2.00;;;1.10;;
3847;SDS011;1939;48.720;9.166;2023-04-12T12:03:24;2.40;;;1.23;;
3847;SDS011;1939;48.720;9.166;2023-04-12T12:05:50;1.50;;;1.00;;
3847;SDS011;1939;48.720;9.166;2023-04-12T12:08:15;1.87;;;1.30;;
3847;SDS011;1939;48.720;9.166;2023-04-12T12:10:41;3.53;;;1.10;;
3847;SDS011;1939;48.720;9.166;2023-04-12T12:13:10;2.60;;;1.00;;
3847;SDS011;1939;48.720;9.166;2023-04-12T12:15:37;4.03;;;1.80;;
3847;SDS011;1939;48.720;9.166;2023-04-12T12:18:02;3.70;;;1.20;;
3847;SDS011;1939;48.720;9.166;2023-04-12T12:20:27;0.97;;;0.80;;
3847;SDS011;1939;48.720;9.166;2023-04-12T12:22:53;1.57;;;1.30;;
3847;SDS011;1939;48.720;9.166;2023-04-12T12:25:18;3.13;;;1.10;;
3847;SDS011;1939;48.720;9.166;2023-04-12T12:27:44;5.97;;;0.70;;
3847;SDS011;1939;48.720;9.166;2023-04-12T12:30:12;4.67;;;1.10;;
3847;SDS011;1939;48.720;9.166;2023-04-12T12:32:41;1.47;;;0.93;;
3847;SDS011;1939;48.720;9.166;2023-04-12T12:35:10;3.70;;;1.37;;
3847;SDS011;1939;48.720;9.166;2023-04-12T12:37:36;3.30;;;1.00;;
3847;SDS011;1939;48.720;9.166;2023-04-12T12:45:09;2.77;;;1.20;;
3847;SDS011;1939;48.720;9.166;2023-04-12T12:47:44;2.47;;;1.30;;
3847;SDS011;1939;48.720;9.166;2023-04-12T12:50:09;1.90;;;1.03;;
3847;SDS011;1939;48.720;9.166;2023-04-12T12:52:37;1.17;;;0.70;;
3847;SDS011;1939;48.720;9.166;2023-04-12T12:55:02;1.50;;;1.30;;
3847;SDS011;1939;48.720;9.166;2023-04-12T12:57:27;2.50;;;0.67;;
3847;SDS011;1939;48.720;9.166;2023-04-12T12:59:53;2.70;;;0.83;;
3847;SDS011;1939;48.720;9.166;2023-04-12T13:02:18;0.70;;;0.70;;
3847;SDS011;1939;48.720;9.166;2023-04-12T13:04:43;0.87;;;0.60;;
3847;SDS011;1939;48.720;9.166;2023-04-12T13:07:08;2.63;;;1.10;;
3847;SDS011;1939;48.720;9.166;2023-04-12T13:09:34;2.50;;;0.87;;
3847;SDS011;1939;48.720;9.166;2023-04-12T13:11:59;4.97;;;1.07;;
3847;SDS011;1939;48.720;9.166;2023-04-12T13:14:25;3.03;;;1.03;;
3847;SDS011;1939;48.720;9.166;2023-04-12T13:16:51;1.20;;;1.03;;
3847;SDS011;1939;48.720;9.166;2023-04-12T13:19:16;3.80;;;0.93;;
3847;SDS011;1939;48.720;9.166;2023-04-12T13:21:41;2.40;;;1.07;;
3847;SDS011;1939;48.720;9.166;2023-04-12T13:24:07;2.87;;;1.00;;
3847;SDS011;1939;48.720;9.166;2023-04-12T13:26:33;5.50;;;1.20;;
3847;SDS011;1939;48.720;9.166;2023-04-12T13:28:58;4.10;;;0.97;;
3847;SDS011;1939;48.720;9.166;2023-04-12T13:31:24;3.13;;;1.00;;
3847;SDS011;1939;48.720;9.166;2023-04-12T13:33:49;1.87;;;0.93;;
3847;SDS011;1939;48.720;9.166;2023-04-12T13:36:15;1.37;;;0.97;;
3847;SDS011;1939;48.720;9.166;2023-04-12T13:38:40;2.20;;;0.87;;
3847;SDS011;1939;48.720;9.166;2023-04-12T13:41:05;3.10;;;1.70;;
3847;SDS011;1939;48.720;9.166;2023-04-12T13:43:31;2.43;;;1.90;;
3847;SDS011;1939;48.720;9.166;2023-04-12T13:45:56;1.20;;;0.80;;
3847;SDS011;1939;48.720;9.166;2023-04-12T13:48:21;2.60;;;0.77;;
3847;SDS011;1939;48.720;9.166;2023-04-12T13:50:47;1.90;;;0.87;;
3847;SDS011;1939;48.720;9.166;2023-04-12T13:53:12;2.43;;;0.97;;
3847;SDS011;1939;48.720;9.166;2023-04-12T13:55:38;0.93;;;0.80;;
3847;SDS011;1939;48.720;9.166;2023-04-12T13:58:03;1.27;;;0.67;;
3847;SDS011;1939;48.720;9.166;2023-04-12T14:00:28;1.43;;;0.90;;
3847;SDS011;1939;48.720;9.166;2023-04-12T14:02:53;1.53;;;0.73;;
3847;SDS011;1939;48.720;9.166;2023-04-12T14:05:19;2.50;;;0.77;;
3847;SDS011;1939;48.720;9.166;2023-04-12T14:07:44;2.23;;;1.20;;
3847;SDS011;1939;48.720;9.166;2023-04-12T14:10:11;1.00;;;0.90;;
3847;SDS011;1939;48.720;9.166;2023-04-12T14:12:36;1.73;;;1.03;;
3847;SDS011;1939;48.720;9.166;2023-04-12T14:15:02;1.30;;;0.83;;
3847;SDS011;1939;48.720;9.166;2023-04-12T14:17:27;4.23;;;0.70;;
3847;SDS011;1939;48.720;9.166;2023-04-12T14:19:56;1.17;;;0.50;;
3847;SDS011;1939;48.720;9.166;2023-04-12T14:22:21;2.57;;;0.70;;
3847;SDS011;1939;48.720;9.166;2023-04-12T14:24:46;2.20;;;0.90;;
3847;SDS011;1939;48.720;9.166;2023-04-12T14:27:11;1.10;;;0.80;;
3847;SDS011;1939;48.720;9.166;2023-04-12T14:29:37;1.07;;;0.77;;
3847;SDS011;1939;48.720;9.166;2023-04-12T14:32:03;4.03;;;0.90;;
3847;SDS011;1939;48.720;9.166;2023-04-12T14:34:29;1.53;;;0.90;;
3847;SDS011;1939;48.720;9.166;2023-04-12T14:36:55;1.00;;;0.73;;
3847;SDS011;1939;48.720;9.166;2023-04-12T14:39:20;2.00;;;0.80;;
3847;SDS011;1939;48.720;9.166;2023-04-12T14:41:48;3.13;;;1.03;;
3847;SDS011;1939;48.720;9.166;2023-04-12T14:44:13;2.60;;;0.90;;
3847;SDS011;1939;48.720;9.166;2023-04-12T14:46:38;0.77;;;0.60;;
3847;SDS011;1939;48.720;9.166;2023-04-12T14:49:04;1.23;;;0.77;;
3847;SDS011;1939;48.720;9.166;2023-04-12T14:51:29;0.60;;;0.60;;
3847;SDS011;1939;48.720;9.166;2023-04-12T14:53:54;1.73;;;0.60;;
3847;SDS011;1939;48.720;9.166;2023-04-12T14:56:20;2.70;;;1.83;;
3847;SDS011;1939;48.720;9.166;2023-04-12T14:58:46;0.97;;;0.70;;
3847;SDS011;1939;48.720;9.166;2023-04-12T15:01:11;1.77;;;0.90;;
3847;SDS011;1939;48.720;9.166;2023-04-12T15:03:37;1.17;;;0.63;;
3847;SDS011;1939;48.720;9.166;2023-04-12T15:06:03;2.67;;;0.77;;
3847;SDS011;1939;48.720;9.166;2023-04-12T15:08:29;6.67;;;0.93;;
3847;SDS011;1939;48.720;9.166;2023-04-12T15:10:54;4.47;;;1.10;;
3847;SDS011;1939;48.720;9.166;2023-04-12T15:13:19;3.10;;;0.97;;
3847;SDS011;1939;48.720;9.166;2023-04-12T15:15:46;1.17;;;0.73;;
3847;SDS011;1939;48.720;9.166;2023-04-12T15:18:11;2.07;;;0.83;;
3847;SDS011;1939;48.720;9.166;2023-04-12T15:20:36;0.87;;;0.73;;
3847;SDS011;1939;48.720;9.166;2023-04-12T15:23:02;2.07;;;0.70;;
3847;SDS011;1939;48.720;9.166;2023-04-12T15:25:27;2.43;;;1.00;;
3847;SDS011;1939;48.720;9.166;2023-04-12T15:27:54;1.73;;;0.53;;
3847;SDS011;1939;48.720;9.166;2023-04-12T15:30:19;5.10;;;0.97;;
3847;SDS011;1939;48.720;9.166;2023-04-12T15:32:45;2.70;;;0.50;;
3847;SDS011;1939;48.720;9.166;2023-04-12T15:35:10;3.33;;;0.70;;
3847;SDS011;1939;48.720;9.166;2023-04-12T15:37:36;0.70;;;0.47;;